CDT,Max TemperatureF,Mean TemperatureF,Min TemperatureF,Max Dew PointF,MeanDew PointF,Min DewpointF,Max Humidity, Mean Humidity, Min Humidity, Max Sea Level PressureIn, Mean Sea Level PressureIn, Min Sea Level PressureIn, Max VisibilityMiles, Mean VisibilityMiles, Min VisibilityMiles, Max Wind SpeedMPH, Mean Wind SpeedMPH, Max Gust SpeedMPH,PrecipitationIn, CloudCover, Events, WindDirDegrees
2013-4-1,75,61,46,49,45,42,93,64,35,30.10,30.04,29.98,10,10,9,18,5,23,0.05,1,Rain,319
2013-4-2,55,48,41,47,39,35,89,72,54,30.22,30.17,30.11,10,8,3,26,13,32,0.96,7,Rain,83
2013-4-3,51,46,41,35,30,22,79,56,32,30.24,30.19,30.16,10,10,10,29,12,37,0.00,8,Rain,83
2013-4-4,59,51,43,44,39,35,89,66,43,30.17,30.13,30.07,10,10,5,12,4,16,0.25,8,Rain,341
2013-4-5,72,56,40,43,39,31,89,56,22,30.22,30.13,30.02,10,10,7,9,3,13,0.00,0,,235
2013-4-6,79,65,51,51,45,39,72,52,31,30.01,29.91,29.81,10,10,10,23,8,30,0.00,0,,156
2013-4-7,76,65,54,58,54,50,83,68,53,29.94,29.86,29.78,10,10,9,17,5,24,0.00,5,,127
2013-4-8,79,71,63,59,57,55,73,61,48,29.82,29.76,29.71,10,10,10,17,7,22,0.00,8,,128
2013-4-9,86,77,67,63,59,56,73,57,40,29.78,29.73,29.68,10,10,10,22,10,29,0.00,6,,143
2013-4-10,78,60,41,65,46,37,89,76,62,29.93,29.82,29.71,10,9,1,32,14,40,0.62,8,Rain,257
2013-4-11,55,47,38,38,34,30,85,66,47,29.92,29.87,29.78,10,10,7,20,10,25,T,4,Rain,283
2013-4-12,65,52,38,41,36,32,89,60,31,30.02,29.95,29.85,10,10,10,18,6,25,0.00,0,,272
2013-4-13,72,60,47,49,44,39,77,58,39,30.09,29.96,29.81,10,10,10,17,8,24,T,3,Rain,62
2013-4-14,82,68,53,54,50,47,83,57,31,29.81,29.67,29.54,10,10,10,20,8,25,0.00,1,,126
2013-4-15,85,74,62,64,60,54,90,67,44,29.78,29.72,29.67,10,10,5,15,7,22,0.00,4,,110
2013-4-16,89,77,64,65,62,61,87,64,40,29.93,29.86,29.78,10,9,6,14,5,20,0.00,3,,130
2013-4-17,87,79,70,70,66,63,84,65,45,29.92,29.82,29.62,10,10,9,22,10,31,T,5,Rain,136
2013-4-18,81,63,44,65,49,29,96,73,49,30.06,29.76,29.53,10,8,2,36,17,47,0.74,8,Rain-Thunderstorm,267
2013-4-19,59,49,38,35,28,25,70,49,28,30.17,30.11,30.06,10,10,10,24,10,29,0.00,1,,276
2013-4-20,72,56,40,44,39,32,89,57,24,30.23,30.15,30.07,10,10,10,15,5,20,0.00,0,,76
2013-4-21,73,61,48,45,40,34,80,53,25,30.28,30.19,30.12,10,10,10,18,6,25,0.00,0,,102
2013-4-22,78,63,48,49,43,41,77,53,29,30.19,30.04,29.89,10,10,7,17,6,23,0.00,0,,103
2013-4-23,70,56,41,56,47,38,93,70,47,30.14,29.98,29.86,10,8,2,21,10,25,0.35,7,Rain,285
2013-4-24,62,51,40,38,34,26,86,57,27,30.33,30.24,30.14,10,9,3,17,7,25,0.05,4,Rain-Thunderstorm,315
2013-4-25,74,56,37,39,34,27,85,52,19,30.39,30.31,30.21,10,10,10,12,3,15,0.00,0,,107
2013-4-26,61,57,53,52,47,41,93,72,51,30.25,30.19,30.12,10,9,2,23,11,29,0.07,8,Rain-Thunderstorm,84
2013-4-27,61,58,54,57,53,50,93,84,75,30.14,30.04,29.99,10,8,2,30,8,37,0.64,8,Rain-Thunderstorm,26
2013-4-28,77,66,54,55,51,48,86,65,43,30.04,29.97,29.87,10,10,10,10,4,13,0.00,4,,278
2013-4-29,87,71,54,62,56,52,93,64,34,29.93,29.85,29.76,10,10,10,18,7,25,0.00,0,,118
2013-4-30,86,72,57,59,53,45,87,56,25,29.87,29.82,29.78,10,10,10,16,5,23,0.00,0,,111